createdAt,value
2018-05-29T00:00:34.492Z,0.00
2018-05-29T00:01:34.430Z,0.00
2018-05-29T00:02:34.348Z,0.00
2018-05-29T00:03:34.284Z,0.00
2018-05-29T00:04:34.206Z,0.00
2018-05-29T00:05:34.142Z,0.00
2018-05-29T00:06:34.058Z,0.00
2018-05-29T00:07:33.999Z,0.00
2018-05-29T00:08:33.919Z,0.00
2018-05-29T00:09:33.850Z,0.00
2018-05-29T00:10:33.777Z,0.00
2018-05-29T00:11:33.712Z,0.00
2018-05-29T00:12:33.635Z,0.00
2018-05-29T00:13:33.572Z,0.00
2018-05-29T00:14:33.487Z,0.00
2018-05-29T00:15:33.430Z,0.00
2018-05-29T00:16:33.348Z,0.00
2018-05-29T00:17:33.282Z,0.00
2018-05-29T00:18:33.204Z,0.00
2018-05-29T00:19:33.141Z,0.00
2018-05-29T00:20:33.064Z,0.00
2018-05-29T00:21:32.996Z,0.00
2018-05-29T00:22:32.918Z,0.00
2018-05-29T00:23:32.852Z,0.00
2018-05-29T00:24:32.774Z,0.00
2018-05-29T00:25:32.714Z,0.00
2018-05-29T00:26:32.629Z,0.00
2018-05-29T00:27:32.565Z,0.00
2018-05-29T00:28:32.486Z,0.00
2018-05-29T00:29:32.428Z,0.00
2018-05-29T00:30:32.354Z,0.00
2018-05-29T00:31:32.280Z,0.00
2018-05-29T00:32:32.204Z,0.00
2018-05-29T00:33:32.135Z,0.00
2018-05-29T00:34:32.057Z,0.00
2018-05-29T00:35:31.993Z,0.00
2018-05-29T00:36:31.914Z,0.00
2018-05-29T00:37:31.854Z,0.00
2018-05-29T00:38:31.770Z,0.00
2018-05-29T00:39:31.704Z,0.00
2018-05-29T00:40:31.625Z,0.00
2018-05-29T00:41:31.562Z,0.00
2018-05-29T00:42:31.483Z,0.00
2018-05-29T00:43:31.420Z,0.00
2018-05-29T00:44:31.339Z,0.00
2018-05-29T00:45:31.277Z,0.00
2018-05-29T00:46:31.193Z,0.00
2018-05-29T00:47:31.133Z,0.00
2018-05-29T00:48:31.049Z,0.00
2018-05-29T00:49:30.987Z,0.00
2018-05-29T00:50:30.906Z,0.00
2018-05-29T00:51:30.849Z,0.00
2018-05-29T00:52:30.761Z,0.00
2018-05-29T00:53:30.706Z,0.00
2018-05-29T00:54:30.622Z,0.00
2018-05-29T00:55:30.559Z,0.00
2018-05-29T00:56:30.476Z,0.00
2018-05-29T00:57:30.413Z,0.00
2018-05-29T00:58:30.341Z,0.00
2018-05-29T00:59:30.268Z,0.00
2018-05-29T01:00:30.194Z,0.00
2018-05-29T01:01:30.125Z,0.00
2018-05-29T01:02:30.048Z,0.00
2018-05-29T01:03:29.983Z,0.00
2018-05-29T01:04:29.902Z,0.00
2018-05-29T01:05:29.839Z,0.00
2018-05-29T01:06:29.758Z,0.00
2018-05-29T01:07:29.690Z,0.00
2018-05-29T01:08:29.618Z,0.00
2018-05-29T01:09:29.547Z,0.00
2018-05-29T01:10:29.468Z,0.00
2018-05-29T01:11:29.399Z,0.00
2018-05-29T01:12:29.324Z,0.00
2018-05-29T01:13:30.264Z,0.00
2018-05-29T01:14:29.178Z,0.00
2018-05-29T01:15:29.115Z,0.00
2018-05-29T01:16:29.034Z,0.00
2018-05-29T01:17:28.975Z,0.00
2018-05-29T01:18:28.889Z,0.00
2018-05-29T01:19:28.827Z,0.00
2018-05-29T01:20:28.745Z,0.00
2018-05-29T01:21:28.683Z,0.00
2018-05-29T01:22:28.600Z,0.00
2018-05-29T01:23:28.537Z,0.00
2018-05-29T01:24:28.458Z,0.00
2018-05-29T01:25:28.392Z,0.00
2018-05-29T01:26:28.314Z,0.00
2018-05-29T01:27:28.248Z,0.00
2018-05-29T01:28:28.177Z,0.00
2018-05-29T01:29:28.105Z,0.00
2018-05-29T01:30:28.033Z,0.00
2018-05-29T01:31:27.966Z,0.00
2018-05-29T01:32:27.925Z,0.00
2018-05-29T01:33:27.815Z,0.00
2018-05-29T01:34:27.738Z,0.00
2018-05-29T01:35:27.671Z,0.00
2018-05-29T01:36:27.595Z,0.00
2018-05-29T01:37:27.528Z,0.00
2018-05-29T01:38:27.447Z,0.00
2018-05-29T01:39:27.380Z,0.00
2018-05-29T01:40:27.301Z,0.00
2018-05-29T01:41:27.244Z,0.00
2018-05-29T01:42:27.161Z,0.00
2018-05-29T01:43:27.093Z,0.00
2018-05-29T01:44:27.011Z,0.00
2018-05-29T01:45:26.948Z,0.00
2018-05-29T01:46:26.870Z,0.00
2018-05-29T01:47:26.805Z,0.00
2018-05-29T01:48:26.722Z,0.00
2018-05-29T01:49:26.659Z,0.00
2018-05-29T01:50:26.579Z,0.00
2018-05-29T01:51:26.513Z,0.00
2018-05-29T01:52:26.434Z,0.00
2018-05-29T01:53:26.369Z,0.00
2018-05-29T01:54:26.293Z,0.00
2018-05-29T01:55:26.223Z,0.00
2018-05-29T01:56:26.146Z,0.00
2018-05-29T01:57:26.080Z,0.00
2018-05-29T01:58:25.995Z,0.00
2018-05-29T01:59:25.934Z,0.00
2018-05-29T02:00:25.852Z,0.00
2018-05-29T02:01:25.788Z,0.00
2018-05-29T02:02:25.706Z,0.00
2018-05-29T02:03:25.641Z,0.00
2018-05-29T02:04:25.626Z,0.00
2018-05-29T02:05:25.500Z,0.00
2018-05-29T02:06:25.419Z,0.00
2018-05-29T02:07:25.354Z,0.00
2018-05-29T02:08:25.272Z,0.00
2018-05-29T02:09:25.213Z,0.00
2018-05-29T02:10:25.130Z,0.00
2018-05-29T02:11:25.062Z,0.00
2018-05-29T02:12:24.984Z,0.00
2018-05-29T02:13:24.917Z,0.00
2018-05-29T02:14:24.833Z,0.00
2018-05-29T02:15:24.773Z,0.00
2018-05-29T02:16:24.691Z,0.00
2018-05-29T02:17:24.628Z,0.00
2018-05-29T02:18:24.549Z,0.00
2018-05-29T02:19:24.481Z,0.00
2018-05-29T02:20:24.403Z,0.00
2018-05-29T02:21:24.337Z,0.00
2018-05-29T02:22:24.259Z,0.00
2018-05-29T02:23:24.193Z,0.00
2018-05-29T02:24:24.111Z,0.00
2018-05-29T02:25:24.047Z,0.00
2018-05-29T02:26:23.965Z,0.00
2018-05-29T02:27:23.899Z,0.00
2018-05-29T02:28:23.821Z,0.00
2018-05-29T02:29:23.756Z,0.00
2018-05-29T02:30:23.674Z,0.00
2018-05-29T02:31:23.613Z,0.00
2018-05-29T02:32:23.536Z,0.00
2018-05-29T02:33:23.466Z,0.00
2018-05-29T02:34:23.389Z,0.00
2018-05-29T02:35:23.319Z,0.00
2018-05-29T02:36:23.236Z,0.00
2018-05-29T02:37:23.174Z,0.00
2018-05-29T02:38:23.096Z,0.00
2018-05-29T02:39:23.029Z,0.00
2018-05-29T02:40:22.949Z,0.00
2018-05-29T02:41:22.886Z,0.00
2018-05-29T02:42:22.807Z,0.00
2018-05-29T02:43:22.739Z,0.00
2018-05-29T02:44:22.659Z,0.00
2018-05-29T02:45:22.600Z,0.00
2018-05-29T02:46:22.517Z,0.00
2018-05-29T02:47:22.451Z,0.00
2018-05-29T02:48:22.368Z,0.00
2018-05-29T02:49:22.300Z,0.00
2018-05-29T02:50:22.222Z,0.00
2018-05-29T02:51:22.161Z,0.00
2018-05-29T02:52:22.078Z,0.00
2018-05-29T02:53:22.018Z,4.00
2018-05-29T02:54:21.936Z,0.00
2018-05-29T02:55:21.867Z,0.00
2018-05-29T02:56:21.800Z,4.00
2018-05-29T02:57:21.717Z,0.00
2018-05-29T02:58:21.637Z,4.00
2018-05-29T02:59:21.580Z,0.00
2018-05-29T03:00:21.498Z,4.00
2018-05-29T03:01:21.428Z,0.00
2018-05-29T03:02:21.351Z,4.00
2018-05-29T03:03:21.279Z,4.00
2018-05-29T03:04:21.204Z,0.00
2018-05-29T03:05:21.139Z,4.00
2018-05-29T03:06:21.056Z,4.00
2018-05-29T03:07:20.992Z,4.00
2018-05-29T03:08:20.915Z,4.00
2018-05-29T03:09:20.850Z,8.00
2018-05-29T03:10:20.767Z,4.00
2018-05-29T03:11:20.706Z,4.00
2018-05-29T03:12:20.626Z,8.00
2018-05-29T03:13:20.558Z,8.00
2018-05-29T03:14:20.482Z,12.00
2018-05-29T03:15:20.405Z,12.00
2018-05-29T03:16:20.332Z,12.00
2018-05-29T03:17:20.254Z,12.00
2018-05-29T03:18:20.191Z,16.00
2018-05-29T03:19:20.112Z,16.00
2018-05-29T03:20:20.048Z,16.00
2018-05-29T03:21:19.971Z,20.00
2018-05-29T03:22:20.901Z,20.00
2018-05-29T03:23:19.827Z,20.00
2018-05-29T03:24:21.824Z,20.00
2018-05-29T03:25:19.672Z,20.00
2018-05-29T03:26:19.687Z,24.00
2018-05-29T03:27:19.526Z,28.00
2018-05-29T03:28:19.461Z,28.00
2018-05-29T03:29:19.381Z,28.00
2018-05-29T03:30:19.402Z,28.00
2018-05-29T03:31:19.236Z,32.00
2018-05-29T03:32:19.172Z,36.00
2018-05-29T03:33:19.089Z,40.00
2018-05-29T03:34:19.163Z,40.00
2018-05-29T03:35:18.943Z,40.00
2018-05-29T03:36:19.954Z,44.00
2018-05-29T03:37:18.805Z,44.00
2018-05-29T03:38:18.840Z,48.00
2018-05-29T03:39:18.654Z,52.00
2018-05-29T03:40:18.651Z,48.00
2018-05-29T03:41:18.508Z,52.00
2018-05-29T03:42:18.436Z,56.00
2018-05-29T03:43:18.363Z,56.00
2018-05-29T03:44:18.295Z,60.00
2018-05-29T03:45:18.216Z,64.00
2018-05-29T03:46:18.148Z,64.00
2018-05-29T03:47:18.070Z,68.00
2018-05-29T03:48:18.004Z,72.00
2018-05-29T03:49:17.921Z,76.00
2018-05-29T03:50:17.859Z,76.00
2018-05-29T03:51:17.807Z,84.00
2018-05-29T03:52:17.716Z,84.00
2018-05-29T03:53:17.635Z,88.00
2018-05-29T03:54:17.575Z,88.00
2018-05-29T03:55:17.487Z,92.00
2018-05-29T03:56:17.526Z,96.00
2018-05-29T03:57:17.341Z,108.00
2018-05-29T03:58:17.277Z,108.00
2018-05-29T03:59:17.193Z,112.00
2018-05-29T04:00:18.123Z,112.00
2018-05-29T04:01:17.074Z,116.00
2018-05-29T04:02:17.055Z,116.00
2018-05-29T04:03:16.900Z,120.00
2018-05-29T04:04:16.862Z,128.00
2018-05-29T04:05:16.752Z,128.00
2018-05-29T04:06:16.773Z,136.00
2018-05-29T04:07:16.605Z,136.00
2018-05-29T04:08:16.585Z,140.00
2018-05-29T04:09:16.462Z,144.00
2018-05-29T04:10:16.494Z,148.00
2018-05-29T04:11:16.311Z,152.00
2018-05-29T04:12:16.301Z,156.00
2018-05-29T04:13:16.168Z,160.00
2018-05-29T04:14:16.213Z,160.00
2018-05-29T04:15:16.025Z,164.00
2018-05-29T04:16:16.023Z,168.00
2018-05-29T04:17:15.884Z,172.00
2018-05-29T04:18:15.832Z,172.00
2018-05-29T04:19:15.728Z,172.00
2018-05-29T04:20:15.742Z,176.00
2018-05-29T04:21:15.584Z,176.00
2018-05-29T04:22:15.550Z,176.00
2018-05-29T04:23:15.435Z,180.00
2018-05-29T04:24:15.461Z,180.00
2018-05-29T04:25:15.297Z,184.00
2018-05-29T04:26:15.272Z,184.00
2018-05-29T04:27:15.145Z,188.00
2018-05-29T04:28:15.178Z,192.00
2018-05-29T04:29:15.000Z,200.00
2018-05-29T04:30:14.986Z,204.00
2018-05-29T04:31:14.859Z,208.00
2018-05-29T04:32:14.794Z,212.00
2018-05-29T04:33:14.706Z,216.00
2018-05-29T04:34:14.710Z,220.00
2018-05-29T04:35:14.560Z,220.00
2018-05-29T04:36:14.514Z,224.00
2018-05-29T04:37:14.413Z,224.00
2018-05-29T04:38:14.424Z,224.00
2018-05-29T04:39:14.264Z,224.00
2018-05-29T04:40:14.236Z,228.00
2018-05-29T04:41:14.131Z,228.00
2018-05-29T04:42:14.146Z,228.00
2018-05-29T04:43:13.980Z,236.00
2018-05-29T04:44:13.954Z,236.00
2018-05-29T04:45:13.830Z,232.00
2018-05-29T04:46:13.863Z,240.00
2018-05-29T04:47:13.691Z,240.00
2018-05-29T04:48:13.673Z,244.00
2018-05-29T04:49:13.542Z,244.00
2018-05-29T04:50:13.582Z,252.00
2018-05-29T04:51:13.398Z,252.00
2018-05-29T04:52:13.396Z,252.00
2018-05-29T04:53:13.254Z,256.00
2018-05-29T04:54:13.208Z,260.00
2018-05-29T04:55:13.107Z,264.00
2018-05-29T04:56:13.112Z,264.00
2018-05-29T04:57:12.958Z,268.00
2018-05-29T04:58:12.919Z,268.00
2018-05-29T04:59:12.810Z,272.00
2018-05-29T05:00:12.837Z,272.00
2018-05-29T05:01:12.664Z,272.00
2018-05-29T05:02:12.604Z,276.00
2018-05-29T05:03:12.519Z,276.00
2018-05-29T05:04:12.457Z,276.00
2018-05-29T05:05:12.378Z,280.00
2018-05-29T05:06:12.313Z,284.00
2018-05-29T05:07:12.231Z,284.00
2018-05-29T05:08:12.276Z,292.00
2018-05-29T05:09:12.088Z,292.00
2018-05-29T05:10:12.079Z,296.00
2018-05-29T05:11:11.940Z,300.00
2018-05-29T05:12:11.887Z,304.00
2018-05-29T05:13:11.796Z,304.00
2018-05-29T05:14:11.797Z,308.00
2018-05-29T05:15:11.654Z,312.00
2018-05-29T05:16:11.610Z,316.00
2018-05-29T05:17:11.514Z,320.00
2018-05-29T05:18:11.519Z,324.00
2018-05-29T05:19:11.360Z,328.00
2018-05-29T05:20:11.368Z,328.00
2018-05-29T05:21:11.218Z,332.00
2018-05-29T05:22:11.238Z,336.00
2018-05-29T05:23:11.074Z,344.00
2018-05-29T05:24:11.043Z,348.00
2018-05-29T05:25:10.926Z,352.00
2018-05-29T05:26:10.958Z,356.00
2018-05-29T05:27:10.780Z,360.00
2018-05-29T05:28:10.767Z,364.00
2018-05-29T05:29:10.642Z,372.00
2018-05-29T05:30:10.711Z,380.00
2018-05-29T05:31:10.500Z,392.00
2018-05-29T05:32:10.490Z,400.00
2018-05-29T05:33:10.353Z,412.00
2018-05-29T05:34:10.291Z,424.00
2018-05-29T05:35:10.206Z,436.00
2018-05-29T05:36:10.203Z,456.00
2018-05-29T05:37:10.068Z,468.00
2018-05-29T05:38:10.016Z,480.00
2018-05-29T05:39:09.920Z,492.00
2018-05-29T05:40:09.925Z,500.00
2018-05-29T05:41:09.779Z,512.00
2018-05-29T05:42:09.732Z,524.00
2018-05-29T05:43:09.628Z,536.00
2018-05-29T05:44:09.643Z,540.00
2018-05-29T05:45:09.984Z,556.00
2018-05-29T05:46:09.491Z,568.00
2018-05-29T05:47:09.344Z,584.00
2018-05-29T05:48:09.279Z,596.00
2018-05-29T05:49:09.199Z,608.00
2018-05-29T05:50:09.173Z,620.00
2018-05-29T05:51:09.053Z,636.00
2018-05-29T05:52:09.081Z,644.00
2018-05-29T05:53:08.917Z,652.00
2018-05-29T05:54:08.888Z,656.00
2018-05-29T05:55:08.766Z,664.00
2018-05-29T05:56:08.801Z,668.00
2018-05-29T05:57:08.625Z,672.00
2018-05-29T05:58:08.610Z,672.00
2018-05-29T05:59:08.482Z,676.00
2018-05-29T06:00:08.527Z,680.00
2018-05-29T06:01:08.349Z,680.00
2018-05-29T06:02:08.332Z,684.00
2018-05-29T06:03:08.198Z,684.00
2018-05-29T06:04:08.245Z,688.00
2018-05-29T06:05:08.062Z,688.00
2018-05-29T06:06:08.052Z,688.00
2018-05-29T06:07:07.914Z,688.00
2018-05-29T06:08:07.858Z,684.00
2018-05-29T06:09:07.774Z,680.00
2018-05-29T06:10:07.777Z,684.00
2018-05-29T06:11:07.628Z,680.00
2018-05-29T06:12:07.580Z,688.00
2018-05-29T06:13:07.487Z,684.00
2018-05-29T06:14:07.494Z,680.00
2018-05-29T06:15:07.348Z,684.00
2018-05-29T06:16:07.299Z,692.00
2018-05-29T06:17:07.204Z,700.00
2018-05-29T06:18:07.210Z,704.00
2018-05-29T06:19:07.061Z,688.00
2018-05-29T06:20:07.021Z,664.00
2018-05-29T06:21:06.920Z,684.00
2018-05-29T06:22:06.923Z,668.00
2018-05-29T06:23:06.780Z,684.00
2018-05-29T06:24:06.741Z,700.00
2018-05-29T06:25:06.641Z,700.00
2018-05-29T06:26:06.648Z,696.00
2018-05-29T06:27:06.495Z,688.00
2018-05-29T06:28:06.501Z,688.00
2018-05-29T06:29:06.355Z,684.00
2018-05-29T06:30:06.369Z,672.00
2018-05-29T06:31:06.215Z,668.00
2018-05-29T06:32:06.175Z,668.00
2018-05-29T06:33:06.074Z,720.00
2018-05-29T06:34:06.086Z,748.00
2018-05-29T06:35:05.932Z,736.00
2018-05-29T06:36:05.897Z,752.00
2018-05-29T06:37:05.792Z,764.00
2018-05-29T06:38:05.808Z,800.00
2018-05-29T06:39:05.651Z,816.00
2018-05-29T06:40:05.614Z,824.00
2018-05-29T06:41:05.511Z,840.00
2018-05-29T06:42:05.530Z,840.00
2018-05-29T06:43:05.371Z,844.00
2018-05-29T06:44:05.333Z,840.00
2018-05-29T06:45:05.341Z,844.00
2018-05-29T06:46:05.245Z,864.00
2018-05-29T06:47:05.090Z,880.00
2018-05-29T06:48:05.052Z,908.00
2018-05-29T06:49:04.950Z,924.00
2018-05-29T06:50:04.971Z,944.00
2018-05-29T06:51:04.812Z,956.00
2018-05-29T06:52:04.777Z,972.00
2018-05-29T06:53:04.673Z,972.00
2018-05-29T06:54:04.684Z,980.00
2018-05-29T06:55:04.535Z,976.00
2018-05-29T06:56:04.493Z,952.00
2018-05-29T06:57:04.402Z,928.00
2018-05-29T06:58:04.404Z,972.00
2018-05-29T06:59:04.255Z,964.00
2018-05-29T07:00:04.215Z,980.00
2018-05-29T07:01:04.122Z,1000.00
2018-05-29T07:02:04.122Z,1028.00
2018-05-29T07:03:03.983Z,1048.00
2018-05-29T07:04:03.939Z,1004.00
2018-05-29T07:05:03.836Z,888.00
2018-05-29T07:06:03.843Z,844.00
2018-05-29T07:07:03.715Z,780.00
2018-05-29T07:08:03.648Z,792.00
2018-05-29T07:09:03.561Z,808.00
2018-05-29T07:10:03.565Z,880.00
2018-05-29T07:11:03.424Z,872.00
2018-05-29T07:12:03.374Z,940.00
2018-05-29T07:13:03.287Z,1100.00
2018-05-29T07:14:03.285Z,1192.00
2018-05-29T07:15:03.144Z,1308.00
2018-05-29T07:16:03.191Z,1416.00
2018-05-29T07:17:03.008Z,1512.00
2018-05-29T07:18:03.000Z,1556.00
2018-05-29T07:19:02.868Z,1448.00
2018-05-29T07:20:02.923Z,1512.00
2018-05-29T07:21:02.733Z,1424.00
2018-05-29T07:22:02.722Z,1352.00
2018-05-29T07:23:02.599Z,1380.00
2018-05-29T07:24:02.632Z,1304.00
2018-05-29T07:25:02.457Z,1452.00
2018-05-29T07:26:02.440Z,1520.00
2018-05-29T07:27:02.322Z,1576.00
2018-05-29T07:28:02.352Z,1760.00
2018-05-29T07:29:02.186Z,1832.00
2018-05-29T07:30:02.164Z,1924.00
2018-05-29T07:31:02.051Z,1928.00
2018-05-29T07:32:02.072Z,2092.00
2018-05-29T07:33:01.915Z,2172.00
2018-05-29T07:34:01.883Z,2148.00
2018-05-29T07:35:01.772Z,2096.00
2018-05-29T07:36:01.793Z,2176.00
2018-05-29T07:37:01.640Z,2124.00
2018-05-29T07:38:01.602Z,2084.00
2018-05-29T07:39:01.508Z,2128.00
2018-05-29T07:40:01.512Z,1740.00
2018-05-29T07:41:01.370Z,1656.00
2018-05-29T07:42:01.323Z,1688.00
2018-05-29T07:43:01.235Z,2072.00
2018-05-29T07:44:01.309Z,2348.00
2018-05-29T07:45:01.107Z,2496.00
2018-05-29T07:46:01.145Z,2252.00
2018-05-29T07:47:00.963Z,2160.00
2018-05-29T07:48:00.950Z,2216.00
2018-05-29T07:49:00.827Z,2200.00
2018-05-29T07:50:00.862Z,2228.00
2018-05-29T07:51:00.693Z,2100.00
2018-05-29T07:52:00.706Z,2424.00
2018-05-29T07:53:00.558Z,2484.00
2018-05-29T07:54:00.584Z,2568.00
2018-05-29T07:55:00.430Z,2560.00
2018-05-29T07:56:00.387Z,2556.00
2018-05-29T07:57:00.294Z,2584.00
2018-05-29T07:58:00.306Z,2440.00
2018-05-29T07:59:00.160Z,2288.00
2018-05-29T08:00:00.111Z,2080.00
2018-05-29T08:01:00.028Z,2104.00
2018-05-29T08:02:00.024Z,1932.00
2018-05-29T08:02:59.892Z,2180.00
2018-05-29T08:03:59.930Z,1940.00
2018-05-29T08:04:59.765Z,1544.00
2018-05-29T08:05:59.743Z,1620.00
2018-05-29T08:06:59.626Z,1836.00
2018-05-29T08:07:59.657Z,1508.00
2018-05-29T08:08:59.491Z,1180.00
2018-05-29T08:09:59.464Z,1248.00
2018-05-29T08:10:59.361Z,1288.00
2018-05-29T08:11:59.372Z,1332.00
2018-05-29T08:12:59.230Z,1288.00
2018-05-29T08:13:59.178Z,1376.00
2018-05-29T08:14:59.095Z,1684.00
2018-05-29T08:15:59.092Z,1492.00
2018-05-29T08:16:58.960Z,1296.00
2018-05-29T08:17:59.003Z,1268.00
2018-05-29T08:18:58.829Z,1312.00
2018-05-29T08:19:58.817Z,1340.00
2018-05-29T08:20:58.699Z,1360.00
2018-05-29T08:21:58.721Z,1884.00
2018-05-29T08:22:58.565Z,1988.00
2018-05-29T08:23:59.126Z,2016.00
2018-05-29T08:24:58.433Z,2572.00
2018-05-29T08:25:58.442Z,2760.00
2018-05-29T08:26:58.301Z,2776.00
2018-05-29T08:27:58.356Z,3208.00
2018-05-29T08:28:58.169Z,3192.00
2018-05-29T08:29:58.162Z,3128.00
2018-05-29T08:30:58.045Z,2880.00
2018-05-29T08:31:58.074Z,2896.00
2018-05-29T08:32:57.906Z,2860.00
2018-05-29T08:33:57.881Z,2860.00
2018-05-29T08:34:57.772Z,2848.00
2018-05-29T08:35:57.792Z,2852.00
2018-05-29T08:36:57.648Z,3004.00
2018-05-29T08:37:57.602Z,3096.00
2018-05-29T08:38:57.511Z,3232.00
2018-05-29T08:39:57.511Z,3280.00
2018-05-29T08:40:57.384Z,3220.00
2018-05-29T08:41:57.429Z,3212.00
2018-05-29T08:42:57.252Z,3296.00
2018-05-29T08:43:57.233Z,3220.00
2018-05-29T08:44:57.127Z,3196.00
2018-05-29T08:45:57.142Z,3152.00
2018-05-29T08:46:56.991Z,3264.00
2018-05-29T08:47:56.953Z,3288.00
2018-05-29T08:48:56.865Z,3304.00
2018-05-29T08:49:56.867Z,3296.00
2018-05-29T08:50:56.739Z,3096.00
2018-05-29T08:51:56.776Z,3212.00
2018-05-29T08:52:56.604Z,3216.00
2018-05-29T08:53:56.588Z,3192.00
2018-05-29T08:54:56.478Z,3080.00
2018-05-29T08:55:56.493Z,2956.00
2018-05-29T08:56:56.346Z,3020.00
2018-05-29T08:57:56.305Z,2928.00
2018-05-29T08:58:56.700Z,2972.00
2018-05-29T08:59:56.590Z,2988.00
2018-05-29T09:00:56.514Z,2848.00
2018-05-29T09:01:56.517Z,2860.00
2018-05-29T09:02:55.961Z,2992.00
2018-05-29T09:03:55.941Z,3144.00
2018-05-29T09:04:55.837Z,3180.00
2018-05-29T09:05:55.849Z,3196.00
2018-05-29T09:06:55.706Z,3192.00
2018-05-29T09:07:55.783Z,3004.00
2018-05-29T09:08:55.578Z,2968.00
2018-05-29T09:09:55.564Z,2948.00
2018-05-29T09:10:55.446Z,2760.00
2018-05-29T09:11:55.486Z,2624.00
2018-05-29T09:12:55.324Z,2652.00
2018-05-29T09:13:56.313Z,2704.00
2018-05-29T09:14:55.196Z,2792.00
2018-05-29T09:15:55.197Z,2752.00
2018-05-29T09:16:55.067Z,2764.00
2018-05-29T09:17:55.106Z,2748.00
2018-05-29T09:18:54.939Z,2796.00
2018-05-29T09:19:54.917Z,2788.00
2018-05-29T09:20:54.816Z,2788.00
2018-05-29T09:21:54.831Z,2752.00
2018-05-29T09:22:54.686Z,2820.00
2018-05-29T09:23:54.740Z,2852.00
2018-05-29T09:24:54.558Z,2844.00
2018-05-29T09:25:54.574Z,2852.00
2018-05-29T09:26:54.431Z,2904.00
2018-05-29T09:27:54.464Z,2900.00
2018-05-29T09:28:54.302Z,2804.00
2018-05-29T09:29:54.324Z,2780.00
2018-05-29T09:30:54.180Z,2732.00
2018-05-29T09:31:54.204Z,2756.00
2018-05-29T09:32:54.052Z,2724.00
2018-05-29T09:33:54.089Z,2688.00
2018-05-29T09:34:53.924Z,2644.00
2018-05-29T09:35:53.897Z,2660.00
2018-05-29T09:36:53.800Z,2680.00
2018-05-29T09:37:53.808Z,2596.00
2018-05-29T09:38:53.673Z,2564.00
2018-05-29T09:39:53.718Z,2616.00
2018-05-29T09:40:53.547Z,2692.00
2018-05-29T09:41:53.532Z,2824.00
2018-05-29T09:42:53.425Z,2780.00
2018-05-29T09:43:53.441Z,2964.00
2018-05-29T09:44:53.294Z,2964.00
2018-05-29T09:45:53.324Z,2920.00
2018-05-29T09:46:53.166Z,2904.00
2018-05-29T09:47:53.162Z,2860.00
2018-05-29T09:48:53.041Z,2856.00
2018-05-29T09:49:53.071Z,2808.00
2018-05-29T09:50:52.921Z,2700.00
2018-05-29T09:51:52.880Z,2732.00
2018-05-29T09:52:52.844Z,2760.00
2018-05-29T09:53:52.791Z,2800.00
2018-05-29T09:54:52.664Z,2804.00
2018-05-29T09:55:52.700Z,2760.00
2018-05-29T09:56:52.540Z,2728.00
2018-05-29T09:57:52.515Z,2788.00
2018-05-29T09:58:52.415Z,2808.00
2018-05-29T09:59:52.423Z,2768.00
2018-05-29T10:00:52.287Z,2700.00
2018-05-29T10:01:52.333Z,2556.00
2018-05-29T10:02:52.168Z,2576.00
2018-05-29T10:03:52.141Z,2508.00
2018-05-29T10:04:52.041Z,2392.00
2018-05-29T10:05:52.055Z,2260.00
2018-05-29T10:06:51.951Z,2148.00
2018-05-29T10:07:51.965Z,2200.00
2018-05-29T10:08:51.787Z,2208.00
2018-05-29T10:09:51.775Z,2364.00
2018-05-29T10:10:51.662Z,2408.00
2018-05-29T10:11:51.685Z,2388.00
2018-05-29T10:12:51.541Z,2064.00
2018-05-29T10:13:51.493Z,2068.00
2018-05-29T10:14:51.412Z,2100.00
2018-05-29T10:15:51.410Z,2188.00
2018-05-29T10:16:51.286Z,2264.00
2018-05-29T10:17:51.315Z,2244.00
2018-05-29T10:18:51.164Z,2124.00
2018-05-29T10:19:51.124Z,2048.00
2018-05-29T10:20:51.041Z,2112.00
2018-05-29T10:21:51.035Z,2152.00
2018-05-29T10:22:50.914Z,2184.00
2018-05-29T10:23:50.947Z,2244.00
2018-05-29T10:24:50.787Z,2348.00
2018-05-29T10:25:50.756Z,2224.00
2018-05-29T10:26:50.665Z,2244.00
2018-05-29T10:27:50.665Z,2096.00
2018-05-29T10:28:50.538Z,2168.00
2018-05-29T10:29:50.576Z,2224.00
2018-05-29T10:30:50.456Z,2316.00
2018-05-29T10:31:50.385Z,2268.00
2018-05-29T10:32:50.291Z,2236.00
2018-05-29T10:33:50.298Z,2132.00
2018-05-29T10:34:50.173Z,2112.00
2018-05-29T10:35:50.211Z,2008.00
2018-05-29T10:36:51.010Z,2036.00
2018-05-29T10:37:50.016Z,2040.00
2018-05-29T10:38:49.918Z,2116.00
2018-05-29T10:39:49.929Z,2048.00
2018-05-29T10:40:49.789Z,2052.00
2018-05-29T10:41:49.836Z,2092.00
2018-05-29T10:42:49.666Z,2276.00
2018-05-29T10:43:49.649Z,2244.00
2018-05-29T10:44:49.545Z,2300.00
2018-05-29T10:45:49.563Z,2332.00
2018-05-29T10:46:49.427Z,2448.00
2018-05-29T10:47:49.466Z,2388.00
2018-05-29T10:48:49.299Z,2232.00
2018-05-29T10:49:49.281Z,2308.00
2018-05-29T10:50:49.171Z,2316.00
2018-05-29T10:51:49.187Z,2248.00
2018-05-29T10:52:49.060Z,2132.00
2018-05-29T10:53:48.999Z,2344.00
2018-05-29T10:54:48.915Z,2460.00
2018-05-29T10:55:48.911Z,2348.00
2018-05-29T10:56:48.789Z,2200.00
2018-05-29T10:57:48.821Z,2080.00
2018-05-29T10:58:48.682Z,2036.00
2018-05-29T10:59:48.632Z,1964.00
2018-05-29T11:00:48.546Z,1940.00
2018-05-29T11:01:48.544Z,1812.00
2018-05-29T11:02:48.425Z,1796.00
2018-05-29T11:03:49.477Z,1664.00
2018-05-29T11:04:48.298Z,1712.00
2018-05-29T11:05:48.232Z,1728.00
2018-05-29T11:06:53.225Z,1720.00
2018-05-29T11:07:48.111Z,1568.00
2018-05-29T11:08:50.126Z,1532.00
2018-05-29T11:09:47.987Z,1524.00
2018-05-29T11:10:47.993Z,1500.00
2018-05-29T11:11:47.864Z,1452.00
2018-05-29T11:12:47.906Z,1392.00
2018-05-29T11:13:47.738Z,1352.00
2018-05-29T11:14:53.750Z,1304.00
2018-05-29T11:15:47.625Z,1312.00
2018-05-29T11:16:47.620Z,1280.00
2018-05-29T11:17:47.492Z,1248.00
2018-05-29T11:18:47.530Z,1236.00
2018-05-29T11:19:47.364Z,1240.00
2018-05-29T11:20:47.340Z,1200.00
2018-05-29T11:21:47.239Z,1180.00
2018-05-29T11:22:47.250Z,1180.00
2018-05-29T11:23:47.113Z,1188.00
2018-05-29T11:24:47.162Z,1192.00
2018-05-29T11:25:46.991Z,1200.00
2018-05-29T11:26:46.971Z,1236.00
2018-05-29T11:27:46.868Z,1240.00
2018-05-29T11:28:46.882Z,1192.00
2018-05-29T11:29:46.741Z,1164.00
2018-05-29T11:30:46.691Z,1164.00
2018-05-29T11:31:46.618Z,1156.00
2018-05-29T11:32:46.601Z,1160.00
2018-05-29T11:33:46.491Z,1156.00
2018-05-29T11:34:46.509Z,1160.00
2018-05-29T11:35:46.373Z,1164.00
2018-05-29T11:36:46.422Z,1168.00
2018-05-29T11:37:46.245Z,1176.00
2018-05-29T11:38:46.234Z,1192.00
2018-05-29T11:39:46.115Z,1204.00
2018-05-29T11:40:46.145Z,1216.00
2018-05-29T11:41:45.996Z,1228.00
2018-05-29T11:42:45.952Z,1260.00
2018-05-29T11:43:45.869Z,1280.00
2018-05-29T11:44:45.862Z,1276.00
2018-05-29T11:45:45.738Z,1296.00
2018-05-29T11:46:45.774Z,1264.00
2018-05-29T11:47:45.621Z,1284.00
2018-05-29T11:48:45.584Z,1268.00
2018-05-29T11:49:45.496Z,1256.00
2018-05-29T11:50:45.502Z,1220.00
2018-05-29T11:51:45.364Z,1216.00
2018-05-29T11:52:45.406Z,1224.00
2018-05-29T11:53:45.235Z,1268.00
2018-05-29T11:54:45.214Z,1348.00
2018-05-29T11:55:45.129Z,1364.00
2018-05-29T11:56:45.126Z,1368.00
2018-05-29T11:57:44.986Z,1352.00
2018-05-29T11:58:45.037Z,1372.00
2018-05-29T11:59:44.862Z,1456.00
2018-05-29T12:00:44.842Z,1488.00
2018-05-29T12:01:44.790Z,1620.00
2018-05-29T12:02:44.756Z,1768.00
2018-05-29T12:03:44.615Z,1816.00
2018-05-29T12:04:44.667Z,1840.00
2018-05-29T12:05:44.491Z,1988.00
2018-05-29T12:06:44.473Z,2116.00
2018-05-29T12:07:44.437Z,2168.00
2018-05-29T12:08:44.386Z,2248.00
2018-05-29T12:09:44.236Z,2236.00
2018-05-29T12:10:44.193Z,2388.00
2018-05-29T12:11:44.111Z,2384.00
2018-05-29T12:12:44.108Z,2428.00
2018-05-29T12:13:43.985Z,2456.00
2018-05-29T12:14:44.016Z,2424.00
2018-05-29T12:15:43.862Z,2528.00
2018-05-29T12:16:43.829Z,2580.00
2018-05-29T12:17:43.738Z,2548.00
2018-05-29T12:18:43.741Z,2552.00
2018-05-29T12:19:43.620Z,2544.00
2018-05-29T12:20:43.644Z,1512.00
2018-05-29T12:21:43.491Z,2496.00
2018-05-29T12:22:43.457Z,2652.00
2018-05-29T12:23:43.367Z,2700.00
2018-05-29T12:24:43.370Z,2668.00
2018-05-29T12:25:43.241Z,2664.00
2018-05-29T12:26:43.280Z,2692.00
2018-05-29T12:27:43.118Z,2724.00
2018-05-29T12:28:43.088Z,2660.00
2018-05-29T12:29:42.992Z,2616.00
2018-05-29T12:30:43.002Z,2636.00